createdAt,value
2022-12-15T00:01:05.008Z,48.63
2022-12-15T00:06:31.281Z,44.44
2022-12-15T00:11:55.397Z,45.57
2022-12-15T00:17:19.175Z,39.77
2022-12-15T00:22:43.511Z,30.57
2022-12-15T00:28:07.257Z,34.93
2022-12-15T00:33:32.825Z,40.60
2022-12-15T00:38:45.585Z,42.43
2022-12-15T00:43:51.807Z,30.00
2022-12-15T00:48:59.123Z,30.45
2022-12-15T00:54:23.756Z,38.93
2022-12-15T00:59:49.464Z,38.63
2022-12-15T01:05:13.215Z,28.03
2022-12-15T01:10:38.141Z,28.83
2022-12-15T01:16:02.104Z,25.67
2022-12-15T01:21:10.223Z,26.37
2022-12-15T01:26:17.223Z,31.65
2022-12-15T01:31:24.125Z,27.67
2022-12-15T01:36:31.678Z,29.37
2022-12-15T01:41:38.090Z,29.90
2022-12-15T01:46:45.095Z,27.87
2022-12-15T01:51:56.992Z,26.97
2022-12-15T01:57:08.372Z,27.83
2022-12-15T02:02:16.766Z,29.23
2022-12-15T02:07:24.258Z,26.93
2022-12-15T02:13:01.785Z,27.85
2022-12-15T02:18:15.268Z,26.12
2022-12-15T02:23:59.596Z,28.87
2022-12-15T02:29:33.303Z,33.77
2022-12-15T02:35:03.528Z,32.37
2022-12-15T02:40:13.092Z,32.53
2022-12-15T02:45:25.216Z,29.67
2022-12-15T02:50:51.579Z,39.34
2022-12-15T02:56:36.298Z,33.70
2022-12-15T03:02:02.830Z,29.82
2022-12-15T03:07:12.098Z,28.93
2022-12-15T03:12:18.769Z,33.63
2022-12-15T03:22:32.453Z,19.57
2022-12-15T03:27:38.995Z,28.25
2022-12-15T03:32:46.221Z,28.90
2022-12-15T03:37:52.953Z,29.80
2022-12-15T03:43:00.008Z,28.23
2022-12-15T03:48:06.473Z,26.23
2022-12-15T03:53:13.158Z,29.10
2022-12-15T03:58:20.218Z,32.50
2022-12-15T04:08:32.211Z,43.13
2022-12-15T04:13:38.703Z,47.38
2022-12-15T04:18:45.642Z,52.73
2022-12-15T04:24:09.855Z,43.07
2022-12-15T04:29:34.385Z,36.97
2022-12-15T04:34:58.399Z,37.20
2022-12-15T04:40:22.802Z,42.67
2022-12-15T04:45:47.384Z,43.13
2022-12-15T04:51:11.352Z,33.77
2022-12-15T04:56:36.164Z,37.05
2022-12-15T05:02:00.643Z,33.60
2022-12-15T05:07:24.710Z,32.77
2022-12-15T05:12:49.446Z,30.52
2022-12-15T05:18:13.495Z,32.55
2022-12-15T05:23:38.315Z,28.85
2022-12-15T05:29:02.526Z,31.10
2022-12-15T05:34:08.657Z,27.73
2022-12-15T05:44:21.366Z,27.82
2022-12-15T05:49:27.762Z,30.05
2022-12-15T05:54:34.654Z,27.97
2022-12-15T05:59:40.867Z,26.83
2022-12-15T06:04:47.917Z,25.05
2022-12-15T06:09:54.267Z,23.37
2022-12-15T06:15:00.516Z,22.48
2022-12-15T06:20:08.982Z,22.55
2022-12-15T06:25:16.007Z,23.93
2022-12-15T06:30:22.334Z,23.97
2022-12-15T06:35:28.731Z,24.27
2022-12-15T06:40:38.231Z,20.37
2022-12-15T06:45:46.239Z,19.53
2022-12-15T06:50:54.872Z,20.60
2022-12-15T06:56:07.518Z,40.30
2022-12-15T07:01:14.143Z,20.63
2022-12-15T07:06:22.112Z,20.60
2022-12-15T07:11:28.319Z,19.27
2022-12-15T07:16:35.146Z,18.15
2022-12-15T07:21:42.412Z,21.83
2022-12-15T07:26:48.968Z,19.67
2022-12-15T07:31:56.483Z,20.27
2022-12-15T07:37:03.836Z,20.33
2022-12-15T07:42:10.005Z,18.33
2022-12-15T07:47:17.115Z,32.97
2022-12-15T07:52:23.564Z,22.82
2022-12-15T07:57:29.920Z,21.87
2022-12-15T08:02:36.919Z,22.93
2022-12-15T08:07:44.314Z,34.57
2022-12-15T08:12:51.176Z,30.50
2022-12-15T08:17:58.347Z,40.43
2022-12-15T08:23:05.162Z,49.67
2022-12-15T08:28:13.024Z,46.15
2022-12-15T08:33:19.402Z,43.17
2022-12-15T08:38:26.001Z,41.37
2022-12-15T08:43:33.130Z,38.65
2022-12-15T08:48:40.138Z,58.13
2022-12-15T08:53:47.914Z,61.10
2022-12-15T08:58:58.384Z,61.67
2022-12-15T09:04:06.811Z,62.97
2022-12-15T09:09:15.590Z,73.43
2022-12-15T09:14:28.936Z,60.10
2022-12-15T09:19:30.954Z,67.97
2022-12-15T09:24:37.728Z,84.57
2022-12-15T09:29:44.039Z,84.00
2022-12-15T09:34:52.751Z,87.33
2022-12-15T09:40:01.277Z,96.67
2022-12-15T09:45:12.064Z,100.12
2022-12-15T09:50:21.166Z,93.27
2022-12-15T09:55:36.015Z,91.42
2022-12-15T10:01:03.328Z,99.62
2022-12-15T10:06:25.908Z,90.45
2022-12-15T10:11:59.302Z,74.77
2022-12-15T10:17:10.187Z,64.10
2022-12-15T10:22:23.840Z,56.17
2022-12-15T10:27:51.967Z,56.63
2022-12-15T10:38:38.399Z,72.97
2022-12-15T10:43:50.201Z,63.60
2022-12-15T10:49:04.143Z,53.53
2022-12-15T10:54:16.416Z,53.63
2022-12-15T10:59:38.505Z,59.70
2022-12-15T11:04:57.077Z,55.87
2022-12-15T11:10:13.647Z,66.83
2022-12-15T11:20:45.405Z,43.73
2022-12-15T11:26:07.992Z,43.87
2022-12-15T11:31:37.064Z,56.50
2022-12-15T11:37:12.413Z,48.83
2022-12-15T11:42:30.159Z,52.35
2022-12-15T11:48:01.855Z,52.37
2022-12-15T11:53:36.087Z,48.83
2022-12-15T11:59:00.316Z,49.30
2022-12-15T12:04:28.614Z,48.73
2022-12-15T12:09:42.034Z,47.33
2022-12-15T12:14:53.443Z,47.40
2022-12-15T12:20:11.224Z,45.50
2022-12-15T12:25:20.495Z,45.27
2022-12-15T12:30:36.831Z,46.47
2022-12-15T12:35:56.824Z,45.95
2022-12-15T12:41:36.887Z,42.53
2022-12-15T12:46:48.975Z,45.87
2022-12-15T12:52:01.270Z,46.47
2022-12-15T12:57:19.004Z,42.03
2022-12-15T13:02:31.433Z,48.35
2022-12-15T13:07:41.266Z,52.03
2022-12-15T13:12:59.183Z,49.67
2022-12-15T13:18:21.297Z,48.00
2022-12-15T13:23:33.478Z,45.17
2022-12-15T13:28:48.480Z,45.23
2022-12-15T13:34:04.082Z,47.47
2022-12-15T13:39:32.654Z,45.00
2022-12-15T13:44:43.190Z,49.77
2022-12-15T13:50:01.281Z,44.73
2022-12-15T13:55:08.767Z,46.45
2022-12-15T14:00:20.256Z,45.60
2022-12-15T14:05:27.583Z,45.33
2022-12-15T14:10:44.211Z,43.43
2022-12-15T14:21:06.724Z,39.23
2022-12-15T14:26:17.496Z,38.33
2022-12-15T14:31:26.289Z,38.93
2022-12-15T14:36:34.996Z,36.10
2022-12-15T14:41:48.921Z,35.50
2022-12-15T14:46:56.718Z,36.87
2022-12-15T14:52:06.941Z,37.63
2022-12-15T14:57:19.500Z,34.03
2022-12-15T15:02:30.679Z,33.10
2022-12-15T15:07:40.180Z,32.80
2022-12-15T15:12:49.049Z,34.83
2022-12-15T15:17:59.077Z,31.47
2022-12-15T15:23:12.694Z,32.43
2022-12-15T15:28:25.855Z,32.37
2022-12-15T15:33:32.774Z,31.02
2022-12-15T15:38:43.883Z,32.60
2022-12-15T15:43:50.685Z,98.43
2022-12-15T15:49:09.705Z,28.37
2022-12-15T15:54:20.044Z,32.17
2022-12-15T15:59:27.068Z,28.25
2022-12-15T16:04:36.426Z,40.73
2022-12-15T16:09:42.936Z,30.53
2022-12-15T16:14:49.250Z,34.30
2022-12-15T16:19:57.029Z,107.32
2022-12-15T16:25:06.797Z,81.83
2022-12-15T16:30:21.017Z,59.58
2022-12-15T16:35:28.596Z,75.23
2022-12-15T16:40:38.811Z,33.40
2022-12-15T16:45:48.626Z,18.93
2022-12-15T16:51:00.730Z,26.27
2022-12-15T16:56:11.668Z,30.57
2022-12-15T17:01:18.127Z,25.07
2022-12-15T17:06:24.779Z,29.23
2022-12-15T17:11:32.401Z,29.17
2022-12-15T17:16:39.020Z,37.33
2022-12-15T17:21:52.052Z,21.43
2022-12-15T17:26:59.536Z,33.75
2022-12-15T17:32:14.421Z,33.47
2022-12-15T17:37:21.606Z,50.65
2022-12-15T17:42:28.026Z,30.50
2022-12-15T17:47:35.894Z,43.13
2022-12-15T17:52:46.482Z,55.67
2022-12-15T17:57:59.159Z,38.90
2022-12-15T18:03:06.030Z,85.33
2022-12-15T18:08:20.992Z,78.33
2022-12-15T18:13:35.437Z,61.33
2022-12-15T18:18:41.280Z,62.23
2022-12-15T18:23:48.564Z,49.55
2022-12-15T18:28:55.711Z,54.57
2022-12-15T18:34:04.966Z,33.90
2022-12-15T18:39:25.324Z,37.87
2022-12-15T18:44:34.050Z,32.88
2022-12-15T18:49:40.625Z,29.03
2022-12-15T18:54:50.289Z,25.93
2022-12-15T19:00:20.120Z,25.17
2022-12-15T19:05:29.408Z,33.53
2022-12-15T19:10:37.152Z,32.60
2022-12-15T19:15:44.262Z,32.07
2022-12-15T19:21:07.888Z,30.03
2022-12-15T19:26:15.964Z,36.93
2022-12-15T19:31:24.567Z,33.45
2022-12-15T19:36:36.702Z,37.37
2022-12-15T19:41:42.410Z,72.73
2022-12-15T19:46:49.547Z,60.63
2022-12-15T19:57:03.060Z,40.90
2022-12-15T20:02:21.615Z,45.53
2022-12-15T20:07:32.157Z,34.50
2022-12-15T20:12:38.934Z,33.73
2022-12-15T20:17:47.313Z,64.57
2022-12-15T20:22:57.950Z,59.57
2022-12-15T20:28:04.799Z,64.13
2022-12-15T20:33:13.131Z,71.53
2022-12-15T20:38:30.470Z,65.80
2022-12-15T20:43:37.285Z,68.80
2022-12-15T20:48:46.682Z,57.90
2022-12-15T20:53:58.530Z,59.13
2022-12-15T20:59:06.322Z,71.10
2022-12-15T21:04:32.175Z,54.27
2022-12-15T21:09:41.299Z,40.00
2022-12-15T21:14:49.590Z,49.00
2022-12-15T21:19:56.733Z,40.83
2022-12-15T21:25:03.921Z,32.27
2022-12-15T21:30:22.389Z,42.63
2022-12-15T21:35:31.868Z,31.05
2022-12-15T21:40:38.226Z,29.00
2022-12-15T21:45:45.058Z,45.83
2022-12-15T21:50:51.602Z,33.37
2022-12-15T21:55:59.546Z,49.20
2022-12-15T22:01:07.599Z,44.97
2022-12-15T22:06:25.532Z,35.77
2022-12-15T22:11:33.642Z,28.87
2022-12-15T22:16:40.885Z,34.90
2022-12-15T22:21:49.031Z,27.53
2022-12-15T22:26:55.559Z,26.00
2022-12-15T22:32:03.020Z,30.93
2022-12-15T22:37:09.504Z,36.50
2022-12-15T22:42:19.698Z,34.58
2022-12-15T22:47:27.795Z,40.77
2022-12-15T22:52:34.546Z,53.90
2022-12-15T22:57:41.814Z,59.50
2022-12-15T23:02:50.287Z,55.93
2022-12-15T23:07:57.674Z,47.83
2022-12-15T23:13:04.935Z,48.73
2022-12-15T23:18:11.216Z,33.60
2022-12-15T23:23:17.731Z,42.00
2022-12-15T23:28:24.396Z,25.93
2022-12-15T23:33:32.015Z,33.17
2022-12-15T23:38:38.705Z,37.93
2022-12-15T23:43:45.338Z,47.70
2022-12-15T23:48:53.014Z,37.20
2022-12-15T23:54:01.000Z,43.70
2022-12-15T23:59:07.919Z,45.38
